Time;durP1;ratioP1;P1;durP2;ratioP2;P2;SDS_P1;SDS_P2;PMS_P1;PMS_P2;Temp;Humidity;BMP_temperature;BMP_pressure;BME280_temperature;BME280_humidity;BME280_pressure;Samples;Min_cycle;Max_cycle;Signal;HPM_P1;HPM_P2
2022/07/30 00:00:50;;;;;;;5.47;5.00;;;19.70;99.90;;;;;;5145364;27;21650;-81
2022/07/30 00:03:17;;;;;;;7.43;5.03;;;19.60;99.90;;;;;;5145899;27;21116;-80
2022/07/30 00:05:44;;;;;;;6.10;4.77;;;19.50;99.90;;;;;;5145100;27;20716;-79
2022/07/30 00:08:11;;;;;;;4.80;4.40;;;19.40;99.90;;;;;;5145783;27;20608;-80
2022/07/30 00:10:38;;;;;;;5.93;5.43;;;19.60;99.90;;;;;;5144110;27;21219;-80
2022/07/30 00:13:04;;;;;;;7.00;6.30;;;19.70;99.90;;;;;;5145345;27;20669;-79
2022/07/30 00:15:33;;;;;;;6.37;5.80;;;19.50;99.90;;;;;;5147037;27;20624;-79
2022/07/30 00:18:00;;;;;;;6.30;5.47;;;19.30;99.90;;;;;;5145937;27;20640;-80
2022/07/30 00:20:26;;;;;;;6.73;6.23;;;19.40;99.90;;;;;;5145015;27;20662;-80
2022/07/30 00:22:53;;;;;;;5.93;5.43;;;19.50;99.90;;;;;;5142875;27;20626;-80
2022/07/30 00:25:20;;;;;;;5.23;4.83;;;19.50;99.90;;;;;;5148234;27;20629;-80
2022/07/30 00:27:47;;;;;;;6.73;6.10;;;19.60;99.90;;;;;;5149166;27;20631;-80
2022/07/30 00:30:14;;;;;;;5.43;4.43;;;19.60;99.90;;;;;;5145581;27;22238;-80
2022/07/30 00:32:42;;;;;;;6.43;4.60;;;19.70;99.90;;;;;;5150113;27;20629;-80
2022/07/30 00:35:10;;;;;;;6.63;5.60;;;19.70;99.90;;;;;;5149530;27;20629;-81
2022/07/30 00:37:37;;;;;;;5.63;4.63;;;19.70;99.90;;;;;;5149298;27;20652;-80
2022/07/30 00:40:05;;;;;;;5.07;4.77;;;19.70;99.90;;;;;;5144518;27;21425;-80
2022/07/30 00:42:40;;;;;;;5.60;5.20;;;19.70;99.90;;;;;;5148342;27;20657;-80
2022/07/30 00:45:08;;;;;;;5.50;4.40;;;19.70;99.90;;;;;;5148843;27;20628;-80
2022/07/30 00:47:35;;;;;;;5.00;4.40;;;19.70;99.90;;;;;;5141859;27;21009;-80
2022/07/30 00:50:04;;;;;;;5.73;4.80;;;19.70;99.90;;;;;;5146205;27;20652;-80
2022/07/30 00:52:31;;;;;;;4.63;4.23;;;19.70;99.90;;;;;;5147707;27;20617;-80
2022/07/30 00:54:58;;;;;;;6.83;4.30;;;19.70;99.90;;;;;;5147432;27;20617;-81
2022/07/30 00:57:25;;;;;;;5.07;4.70;;;19.70;99.90;;;;;;5148767;27;20628;-81
2022/07/30 00:59:52;;;;;;;6.00;4.80;;;19.70;99.90;;;;;;5148878;27;20655;-81
2022/07/30 01:02:19;;;;;;;6.27;5.77;;;19.70;99.90;;;;;;5147702;27;20658;-81
2022/07/30 01:04:46;;;;;;;4.97;4.57;;;19.70;99.90;;;;;;5144802;27;21505;-81
2022/07/30 01:07:14;;;;;;;5.63;4.77;;;19.60;99.90;;;;;;5151367;27;20981;-81
2022/07/30 01:09:41;;;;;;;6.10;5.20;;;19.70;99.90;;;;;;5149667;27;20664;-81
2022/07/30 01:12:09;;;;;;;5.43;4.90;;;19.70;99.90;;;;;;5146015;27;20632;-81
2022/07/30 01:14:37;;;;;;;5.63;5.07;;;19.60;99.90;;;;;;5148191;27;20644;-81
2022/07/30 01:17:04;;;;;;;5.40;5.00;;;19.60;99.90;;;;;;5149791;27;20636;-80
2022/07/30 01:19:52;;;;;;;7.17;5.00;;;19.60;99.90;;;;;;5146568;27;20637;-81
2022/07/30 01:22:47;;;;;;;9.00;5.40;;;19.60;99.90;;;;;;5143947;27;20642;-83
2022/07/30 01:25:20;;;;;;;6.00;5.37;;;19.50;99.90;;;;;;5147034;27;20736;-80
2022/07/30 01:27:52;;;;;;;7.07;6.57;;;19.50;99.90;;;;;;5150559;27;20629;-80
2022/07/30 01:30:20;;;;;;;7.60;6.67;;;19.20;99.90;;;;;;5148416;27;20650;-82
2022/07/30 01:32:48;;;;;;;6.50;5.90;;;18.80;99.90;;;;;;5148164;27;20618;-82
2022/07/30 01:35:16;;;;;;;6.43;5.27;;;18.90;99.90;;;;;;5148168;27;20626;-83
2022/07/30 01:37:44;;;;;;;5.10;4.70;;;19.10;99.90;;;;;;5149448;27;20636;-80
2022/07/30 01:40:13;;;;;;;6.97;5.40;;;19.30;99.90;;;;;;5145568;27;20653;-82
2022/07/30 01:42:41;;;;;;;4.93;4.43;;;19.40;99.90;;;;;;5149230;27;21616;-82
2022/07/30 01:45:12;;;;;;;7.00;5.10;;;19.50;99.90;;;;;;5149782;27;20620;-82
2022/07/30 01:47:40;;;;;;;5.83;5.30;;;19.60;99.90;;;;;;5149722;27;21062;-82
2022/07/30 01:50:12;;;;;;;5.33;4.93;;;19.60;99.90;;;;;;5147530;27;20657;-82
2022/07/30 01:52:41;;;;;;;10.17;5.17;;;19.60;99.90;;;;;;5140312;27;21001;-82
2022/07/30 01:55:10;;;;;;;5.47;5.03;;;19.50;99.90;;;;;;5145053;27;20617;-82
2022/07/30 01:57:38;;;;;;;5.17;4.67;;;19.50;99.90;;;;;;5148344;27;20629;-82
2022/07/30 02:00:09;;;;;;;6.30;5.20;;;19.50;99.90;;;;;;5145828;27;20733;-82
2022/07/30 02:02:37;;;;;;;6.03;5.43;;;19.50;99.90;;;;;;5146048;27;20645;-82
2022/07/30 02:05:05;;;;;;;8.27;6.00;;;19.50;99.90;;;;;;5145261;27;21173;-82
2022/07/30 02:07:40;;;;;;;6.53;6.03;;;19.50;99.90;;;;;;5152062;27;20625;-81
2022/07/30 02:10:12;;;;;;;5.77;5.37;;;19.50;99.90;;;;;;5146269;27;20707;-81
2022/07/30 02:12:46;;;;;;;5.80;5.40;;;19.50;99.90;;;;;;5148061;27;20620;-81
2022/07/30 02:15:17;;;;;;;4.40;4.10;;;19.50;99.90;;;;;;5146775;27;20609;-82
2022/07/30 02:17:50;;;;;;;6.03;4.80;;;19.40;99.90;;;;;;5145592;27;20971;-81
2022/07/30 02:20:17;;;;;;;4.07;3.77;;;19.20;99.90;;;;;;5145557;27;20678;-82
2022/07/30 02:22:48;;;;;;;4.77;4.37;;;19.30;99.90;;;;;;5146105;27;20657;-81
2022/07/30 02:25:21;;;;;;;5.83;4.40;;;19.30;99.90;;;;;;5144914;27;20643;-81
2022/07/30 02:27:50;;;;;;;4.53;4.13;;;19.30;99.90;;;;;;5147005;27;20636;-81
2022/07/30 02:30:19;;;;;;;5.13;4.63;;;19.30;99.90;;;;;;5147528;27;20654;-81
2022/07/30 02:32:49;;;;;;;4.43;4.03;;;19.30;99.90;;;;;;5146569;27;20644;-81
2022/07/30 02:35:19;;;;;;;3.97;3.77;;;19.30;99.90;;;;;;5142148;27;20617;-81
2022/07/30 02:37:49;;;;;;;4.10;3.80;;;19.20;99.90;;;;;;5147633;27;21171;-81
2022/07/30 02:40:19;;;;;;;8.10;4.00;;;19.10;99.90;;;;;;5140925;27;20646;-81
2022/07/30 02:42:49;;;;;;;3.97;3.67;;;19.10;99.90;;;;;;5143798;27;21025;-81
2022/07/30 02:45:18;;;;;;;5.23;4.47;;;19.10;99.90;;;;;;5145480;27;20622;-81
2022/07/30 02:47:46;;;;;;;4.60;4.20;;;19.10;99.90;;;;;;5147445;27;20621;-81
2022/07/30 02:50:13;;;;;;;5.97;3.97;;;19.10;99.90;;;;;;5146903;27;20641;-82
2022/07/30 02:52:42;;;;;;;5.30;4.30;;;19.10;99.90;;;;;;5142497;27;21202;-81
2022/07/30 02:55:11;;;;;;;4.77;4.47;;;19.00;99.90;;;;;;5146085;27;20724;-81
2022/07/30 02:57:41;;;;;;;5.37;4.97;;;19.00;99.90;;;;;;5144419;27;20615;-81
2022/07/30 03:00:09;;;;;;;5.87;5.30;;;19.00;99.90;;;;;;5146130;27;20684;-81
2022/07/30 03:02:37;;;;;;;6.37;4.80;;;18.60;99.90;;;;;;5146833;27;20751;-81
2022/07/30 03:05:06;;;;;;;6.07;5.57;;;18.60;99.90;;;;;;5148528;27;20630;-81
2022/07/30 03:07:34;;;;;;;4.70;4.30;;;18.70;99.90;;;;;;5143850;27;20617;-81
2022/07/30 03:10:02;;;;;;;4.43;4.03;;;18.70;99.90;;;;;;5145274;27;20683;-81
2022/07/30 03:12:31;;;;;;;5.47;4.97;;;18.80;99.90;;;;;;5147692;27;20610;-81
2022/07/30 03:14:58;;;;;;;7.93;5.17;;;18.50;99.90;;;;;;5147045;27;20625;-81
2022/07/30 03:17:28;;;;;;;5.43;5.03;;;18.30;99.90;;;;;;5143386;27;20634;-81
2022/07/30 03:20:00;;;;;;;12.47;6.30;;;18.40;99.90;;;;;;5143550;27;20641;-80
2022/07/30 03:22:28;;;;;;;5.50;4.87;;;18.30;99.90;;;;;;5146254;27;20666;-80
2022/07/30 03:24:57;;;;;;;6.03;5.53;;;18.10;99.90;;;;;;5147898;27;20980;-80
2022/07/30 03:27:25;;;;;;;5.17;4.77;;;18.20;99.90;;;;;;5145915;27;20628;-81
2022/07/30 03:29:54;;;;;;;5.90;5.50;;;18.40;99.90;;;;;;5146667;27;20653;-81
2022/07/30 03:32:22;;;;;;;5.43;4.93;;;18.40;99.90;;;;;;5146712;27;20639;-81
2022/07/30 03:34:49;;;;;;;5.43;5.03;;;18.40;99.90;;;;;;5147698;27;20629;-81
2022/07/30 03:37:18;;;;;;;5.37;4.70;;;18.20;99.90;;;;;;5146039;27;20624;-81
2022/07/30 03:39:46;;;;;;;4.80;4.50;;;18.30;99.90;;;;;;5146835;27;21019;-81
2022/07/30 03:42:13;;;;;;;5.60;5.10;;;18.40;99.90;;;;;;5142285;27;20657;-81
2022/07/30 03:44:44;;;;;;;4.60;4.20;;;18.50;99.90;;;;;;5139716;27;21175;-81
2022/07/30 03:47:13;;;;;;;5.83;5.20;;;18.50;99.90;;;;;;5140269;27;20662;-81
2022/07/30 03:49:40;;;;;;;5.50;5.00;;;18.50;99.90;;;;;;5143010;27;20649;-82
2022/07/30 03:52:08;;;;;;;5.70;5.30;;;18.50;99.90;;;;;;5145348;27;20620;-81
2022/07/30 03:54:36;;;;;;;5.37;4.93;;;18.50;99.90;;;;;;5141580;27;20652;-81
2022/07/30 03:57:05;;;;;;;5.43;4.93;;;18.40;99.90;;;;;;5142365;27;20634;-81
2022/07/30 03:59:32;;;;;;;5.20;4.40;;;18.40;99.90;;;;;;5146694;27;20705;-81
2022/07/30 04:02:01;;;;;;;5.57;4.47;;;18.40;99.90;;;;;;5147691;27;20672;-82
2022/07/30 04:04:29;;;;;;;5.43;4.80;;;18.40;99.90;;;;;;5145229;27;20622;-81
2022/07/30 04:06:56;;;;;;;5.83;5.30;;;18.30;99.90;;;;;;5145417;27;20992;-82
2022/07/30 04:09:23;;;;;;;5.63;4.17;;;18.30;99.90;;;;;;5148230;27;20636;-81
2022/07/30 04:11:51;;;;;;;7.13;5.50;;;18.30;99.90;;;;;;5147685;27;20628;-80
2022/07/30 04:14:18;;;;;;;5.47;5.07;;;18.30;99.90;;;;;;5144181;27;20640;-81
2022/07/30 04:16:50;;;;;;;5.70;4.60;;;18.20;99.90;;;;;;5144274;27;20632;-80
2022/07/30 04:19:22;;;;;;;5.70;5.33;;;18.20;99.90;;;;;;5145629;27;20681;-81
2022/07/30 04:21:52;;;;;;;6.80;4.60;;;18.20;99.90;;;;;;5147918;27;20652;-81
2022/07/30 04:24:20;;;;;;;5.17;4.77;;;18.20;99.90;;;;;;5143822;27;21347;-81
2022/07/30 04:26:48;;;;;;;6.00;5.40;;;18.20;99.90;;;;;;5146499;27;20991;-80
2022/07/30 04:29:17;;;;;;;5.60;5.03;;;18.20;99.90;;;;;;5144372;27;20634;-81
2022/07/30 04:31:45;;;;;;;5.63;4.70;;;18.20;99.90;;;;;;5145489;27;21043;-79
2022/07/30 04:34:14;;;;;;;6.20;4.80;;;18.20;99.90;;;;;;5145793;27;20978;-79
2022/07/30 04:36:42;;;;;;;5.47;5.07;;;18.20;99.90;;;;;;5146462;27;20690;-79
2022/07/30 04:39:09;;;;;;;7.50;5.40;;;18.10;99.90;;;;;;5143787;27;22143;-80
2022/07/30 04:41:36;;;;;;;7.80;5.30;;;18.10;99.90;;;;;;5143782;27;20621;-79
2022/07/30 04:44:03;;;;;;;5.77;5.37;;;18.10;99.90;;;;;;5138770;27;20606;-79
2022/07/30 04:46:32;;;;;;;5.33;4.93;;;18.10;99.90;;;;;;5158341;27;20647;-80
2022/07/30 04:48:58;;;;;;;5.37;4.97;;;18.10;99.90;;;;;;5149234;27;20997;-80
2022/07/30 04:51:29;;;;;;;5.90;5.07;;;18.10;99.90;;;;;;5148919;27;20672;-80
2022/07/30 04:53:58;;;;;;;10.30;5.13;;;18.10;99.90;;;;;;5143624;27;20641;-80
2022/07/30 04:56:27;;;;;;;10.13;5.43;;;18.10;99.90;;;;;;5145312;27;20655;-79
2022/07/30 04:58:54;;;;;;;7.10;5.50;;;18.10;99.90;;;;;;5149341;27;21175;-80
2022/07/30 05:01:24;;;;;;;5.23;4.83;;;18.10;99.90;;;;;;5146055;27;20752;-80
2022/07/30 05:03:53;;;;;;;6.10;5.60;;;18.10;99.90;;;;;;5147340;27;20669;-81
2022/07/30 05:06:21;;;;;;;5.30;4.90;;;18.10;99.90;;;;;;5150163;27;20633;-80
2022/07/30 05:08:48;;;;;;;7.07;6.30;;;18.10;99.90;;;;;;5150481;27;20621;-80
2022/07/30 05:11:15;;;;;;;5.93;5.43;;;18.20;99.90;;;;;;5150309;27;20651;-81
2022/07/30 05:13:43;;;;;;;6.00;5.50;;;18.20;99.90;;;;;;5150767;27;20632;-80
2022/07/30 05:16:10;;;;;;;5.37;5.07;;;18.30;99.90;;;;;;5148633;27;20625;-81
2022/07/30 05:18:37;;;;;;;5.77;5.37;;;18.40;99.90;;;;;;5155129;27;20621;-81
2022/07/30 05:21:06;;;;;;;4.70;4.37;;;18.40;99.90;;;;;;5156535;27;20644;-81
2022/07/30 05:23:33;;;;;;;5.50;5.10;;;18.40;99.90;;;;;;5149530;27;20664;-81
2022/07/30 05:25:59;;;;;;;5.20;4.80;;;18.50;99.90;;;;;;5150104;27;21176;-81
2022/07/30 05:28:26;;;;;;;6.67;6.17;;;18.50;99.90;;;;;;5149165;27;20625;-80
2022/07/30 05:30:53;;;;;;;7.57;6.87;;;18.50;99.90;;;;;;5149542;27;20660;-81
2022/07/30 05:33:21;;;;;;;6.13;5.50;;;18.50;99.90;;;;;;5145388;27;20626;-81
2022/07/30 05:35:47;;;;;;;6.70;6.10;;;18.50;99.90;;;;;;5145435;27;21480;-81
2022/07/30 05:38:17;;;;;;;6.63;5.63;;;18.60;99.90;;;;;;5147577;27;20629;-81
2022/07/30 05:40:45;;;;;;;6.20;5.70;;;18.60;99.90;;;;;;5149257;27;21234;-81
2022/07/30 05:43:12;;;;;;;7.00;6.37;;;18.60;99.90;;;;;;5147975;27;20666;-80
2022/07/30 05:45:39;;;;;;;6.07;5.57;;;18.60;99.90;;;;;;5149625;27;20984;-80
2022/07/30 05:48:06;;;;;;;5.87;5.47;;;18.70;99.90;;;;;;5147835;27;20656;-82
2022/07/30 05:50:33;;;;;;;6.17;5.10;;;18.70;99.90;;;;;;5141484;27;20641;-79
2022/07/30 05:53:00;;;;;;;5.17;4.57;;;18.80;99.90;;;;;;5145804;27;21049;-80
2022/07/30 05:55:28;;;;;;;5.43;4.93;;;18.90;99.90;;;;;;5146784;27;21184;-81
2022/07/30 05:57:55;;;;;;;5.23;4.67;;;18.90;99.90;;;;;;5147794;27;20724;-82
2022/07/30 06:00:21;;;;;;;7.90;5.53;;;19.00;99.90;;;;;;5145041;27;21204;-82
2022/07/30 06:02:48;;;;;;;6.53;4.97;;;19.00;99.90;;;;;;5148653;27;20665;-81
2022/07/30 06:05:15;;;;;;;7.37;6.67;;;19.20;99.90;;;;;;5148126;27;20627;-81
2022/07/30 06:07:42;;;;;;;7.20;6.60;;;19.20;99.90;;;;;;5148073;27;20629;-81
2022/07/30 06:10:09;;;;;;;7.17;6.57;;;19.10;99.90;;;;;;5146788;27;20648;-81
2022/07/30 06:12:37;;;;;;;6.20;5.60;;;19.20;99.90;;;;;;5146481;27;20629;-81
2022/07/30 06:15:05;;;;;;;7.30;6.70;;;19.00;99.90;;;;;;5142246;27;20626;-81
2022/07/30 06:17:31;;;;;;;7.53;6.90;;;19.00;99.90;;;;;;5144348;27;20634;-81
2022/07/30 06:20:00;;;;;;;5.57;5.07;;;19.10;99.90;;;;;;5149850;27;20656;-81
2022/07/30 06:22:26;;;;;;;7.80;6.70;;;19.10;99.90;;;;;;5148357;27;20669;-82
2022/07/30 06:24:53;;;;;;;7.30;6.80;;;19.30;99.90;;;;;;5143444;27;20705;-82
2022/07/30 06:27:20;;;;;;;6.10;5.23;;;19.10;99.90;;;;;;5149559;27;20625;-82
2022/07/30 06:29:48;;;;;;;6.23;5.60;;;19.20;99.90;;;;;;5150645;27;20645;-81
2022/07/30 06:32:16;;;;;;;6.40;5.80;;;19.30;99.90;;;;;;5147889;27;20709;-82
2022/07/30 06:34:42;;;;;;;6.43;5.93;;;19.30;99.90;;;;;;5146478;27;20636;-82
2022/07/30 06:37:09;;;;;;;6.03;5.57;;;19.30;99.90;;;;;;5146683;27;20653;-82
2022/07/30 06:39:36;;;;;;;6.50;5.20;;;19.40;99.90;;;;;;5146739;27;20641;-82
2022/07/30 06:42:04;;;;;;;5.77;5.23;;;19.50;99.90;;;;;;5144172;27;21187;-82
2022/07/30 06:44:30;;;;;;;6.53;5.50;;;19.50;99.90;;;;;;5147617;27;21219;-82
2022/07/30 06:46:59;;;;;;;6.20;5.00;;;19.60;99.90;;;;;;5139510;27;20634;-80
2022/07/30 06:49:25;;;;;;;6.60;6.10;;;19.60;99.90;;;;;;5145369;27;20626;-82
2022/07/30 06:51:52;;;;;;;6.53;6.00;;;19.70;99.90;;;;;;5147929;27;20703;-80
2022/07/30 06:54:19;;;;;;;6.77;5.43;;;19.80;99.90;;;;;;5143914;27;20652;-81
2022/07/30 06:56:46;;;;;;;6.60;5.90;;;19.90;99.90;;;;;;5146956;27;20629;-80
2022/07/30 06:59:13;;;;;;;6.20;5.20;;;20.00;99.90;;;;;;5147129;27;20702;-82
2022/07/30 07:01:39;;;;;;;8.87;5.40;;;20.00;99.90;;;;;;5145944;27;20617;-82
2022/07/30 07:04:08;;;;;;;5.90;5.30;;;20.10;99.90;;;;;;5146920;27;20658;-81
2022/07/30 07:06:35;;;;;;;6.20;5.57;;;20.30;99.90;;;;;;5140299;27;20633;-80
2022/07/30 07:09:01;;;;;;;6.60;5.37;;;20.40;99.90;;;;;;5148212;27;20617;-82
2022/07/30 07:11:28;;;;;;;5.37;4.87;;;20.50;99.90;;;;;;5146616;27;20652;-82
2022/07/30 07:13:55;;;;;;;5.37;4.87;;;20.40;99.90;;;;;;5145908;27;20616;-81
2022/07/30 07:16:24;;;;;;;6.50;5.07;;;20.50;99.90;;;;;;5147209;27;20659;-82
2022/07/30 07:18:51;;;;;;;6.13;4.63;;;20.70;99.90;;;;;;5147236;27;20624;-82
2022/07/30 07:21:19;;;;;;;7.47;4.80;;;20.80;99.90;;;;;;5148014;27;20655;-82
2022/07/30 07:23:47;;;;;;;6.27;5.67;;;20.90;99.90;;;;;;5145975;27;20661;-83
2022/07/30 07:26:14;;;;;;;7.57;5.40;;;21.00;99.90;;;;;;5145023;27;20632;-83
2022/07/30 07:28:41;;;;;;;6.17;5.67;;;21.10;99.90;;;;;;5142149;27;20625;-81
2022/07/30 07:31:08;;;;;;;7.30;6.40;;;21.30;99.90;;;;;;5143471;27;20654;-83
2022/07/30 07:33:35;;;;;;;8.43;4.73;;;21.40;99.90;;;;;;5148991;27;21097;-81
2022/07/30 07:36:02;;;;;;;6.83;5.93;;;21.50;99.90;;;;;;5153853;27;20621;-82
2022/07/30 07:38:30;;;;;;;7.60;6.60;;;21.50;99.90;;;;;;5149620;27;20630;-81
2022/07/30 07:40:57;;;;;;;7.43;5.93;;;21.60;99.90;;;;;;5151681;27;20652;-82
2022/07/30 07:43:24;;;;;;;5.30;4.80;;;21.70;99.90;;;;;;5149070;27;20661;-82
2022/07/30 07:45:51;;;;;;;6.17;5.00;;;21.70;99.90;;;;;;5152218;27;20625;-81
2022/07/30 07:48:18;;;;;;;4.90;4.23;;;21.80;99.90;;;;;;5152062;27;21389;-81
2022/07/30 07:50:45;;;;;;;5.10;4.23;;;21.90;99.90;;;;;;5150891;27;20645;-81
2022/07/30 07:53:12;;;;;;;7.53;5.10;;;22.10;99.90;;;;;;5150561;27;20624;-82
2022/07/30 07:55:40;;;;;;;7.40;5.30;;;22.10;99.90;;;;;;5149719;27;20609;-82
2022/07/30 07:58:10;;;;;;;8.13;5.13;;;22.30;99.90;;;;;;5150003;27;20629;-82
2022/07/30 08:00:37;;;;;;;6.20;5.00;;;22.40;99.90;;;;;;5152624;27;20689;-82
2022/07/30 08:03:04;;;;;;;5.10;4.70;;;22.50;99.90;;;;;;5144519;27;20646;-81
2022/07/30 08:05:31;;;;;;;4.93;4.43;;;22.60;99.90;;;;;;5140692;27;20656;-82
2022/07/30 08:07:58;;;;;;;6.43;4.20;;;22.70;99.90;;;;;;5145560;27;20618;-82
2022/07/30 08:10:25;;;;;;;5.93;4.63;;;22.80;99.90;;;;;;5147681;27;20656;-81
2022/07/30 08:12:54;;;;;;;5.90;4.13;;;23.00;99.90;;;;;;5151242;27;20612;-82
2022/07/30 08:15:21;;;;;;;6.30;5.20;;;23.00;99.90;;;;;;5147589;27;20625;-80
2022/07/30 08:17:47;;;;;;;8.23;4.10;;;23.10;99.90;;;;;;5142587;27;20648;-80
2022/07/30 08:20:15;;;;;;;6.10;4.50;;;23.20;99.90;;;;;;5143488;27;20645;-81
2022/07/30 08:22:42;;;;;;;5.23;4.10;;;23.20;99.90;;;;;;5145728;27;20628;-81
2022/07/30 08:25:10;;;;;;;3.87;3.57;;;23.30;99.90;;;;;;5143499;27;20630;-81
2022/07/30 08:27:37;;;;;;;4.80;4.20;;;23.40;99.90;;;;;;5146498;27;21179;-82
2022/07/30 08:30:06;;;;;;;4.77;3.40;;;23.50;99.90;;;;;;5146725;27;21005;-80
2022/07/30 08:32:33;;;;;;;4.20;3.80;;;23.60;99.90;;;;;;5144955;27;20998;-81
2022/07/30 08:35:01;;;;;;;6.87;3.43;;;23.70;99.90;;;;;;5142121;27;20628;-82
2022/07/30 08:37:28;;;;;;;4.20;3.43;;;23.80;97.10;;;;;;5139705;27;21443;-82
2022/07/30 08:39:55;;;;;;;4.27;3.13;;;23.80;93.90;;;;;;5140955;27;20657;-82
2022/07/30 08:42:22;;;;;;;3.50;3.20;;;23.80;94.90;;;;;;5144921;27;20788;-81
2022/07/30 08:44:51;;;;;;;3.80;3.27;;;23.80;94.40;;;;;;5147685;27;20664;-82
2022/07/30 08:47:20;;;;;;;4.47;3.60;;;23.90;96.00;;;;;;5144192;27;20628;-82
2022/07/30 08:49:48;;;;;;;5.20;3.00;;;24.00;94.00;;;;;;5145605;27;20657;-81
2022/07/30 08:52:15;;;;;;;4.30;3.80;;;24.10;95.10;;;;;;5144335;27;21193;-82
2022/07/30 08:54:43;;;;;;;4.23;3.20;;;24.20;96.10;;;;;;5142283;27;20635;-83
2022/07/30 08:57:10;;;;;;;3.60;3.30;;;24.30;96.90;;;;;;5145528;27;20629;-81
2022/07/30 08:59:38;;;;;;;5.77;4.23;;;24.40;94.40;;;;;;5154850;27;20643;-82
2022/07/30 09:02:05;;;;;;;4.70;3.30;;;24.50;92.30;;;;;;5153077;27;20622;-82
2022/07/30 09:04:33;;;;;;;5.73;4.30;;;24.50;94.90;;;;;;5143860;27;20661;-82
2022/07/30 09:07:01;;;;;;;5.30;3.33;;;24.50;90.40;;;;;;5147562;27;20629;-82
2022/07/30 09:09:31;;;;;;;3.10;2.90;;;24.50;90.60;;;;;;5144587;27;20730;-82
2022/07/30 09:11:57;;;;;;;3.50;3.00;;;24.60;90.60;;;;;;5146997;27;20724;-83
2022/07/30 09:14:24;;;;;;;4.83;3.30;;;24.80;92.40;;;;;;5144982;27;20634;-84
2022/07/30 09:16:56;;;;;;;4.23;3.83;;;24.90;90.70;;;;;;5150096;27;20648;-84
2022/07/30 09:19:24;;;;;;;5.53;3.60;;;25.00;84.60;;;;;;5148110;27;20666;-82
2022/07/30 09:21:59;;;;;;;4.10;3.40;;;25.00;83.10;;;;;;5151804;27;20632;-82
2022/07/30 09:24:27;;;;;;;5.17;3.70;;;25.00;81.50;;;;;;5149882;27;21031;-83
2022/07/30 09:26:57;;;;;;;3.27;2.90;;;25.10;81.70;;;;;;5150206;27;20707;-83
2022/07/30 09:29:26;;;;;;;2.80;2.60;;;25.00;85.40;;;;;;5150034;27;20634;-83
2022/07/30 09:31:55;;;;;;;3.10;2.60;;;25.00;84.00;;;;;;5147048;27;20629;-84
2022/07/30 09:34:27;;;;;;;3.23;2.93;;;25.10;79.40;;;;;;5143058;27;20994;-83
2022/07/30 09:36:55;;;;;;;3.10;2.37;;;25.10;76.40;;;;;;5148396;27;21022;-83
2022/07/30 09:39:34;;;;;;;5.63;2.70;;;25.20;79.30;;;;;;5147762;27;20634;-83
2022/07/30 09:42:02;;;;;;;3.43;2.87;;;25.40;78.50;;;;;;5150131;27;20616;-83
2022/07/30 09:44:30;;;;;;;5.17;3.10;;;25.50;77.60;;;;;;5149839;27;21230;-82
2022/07/30 09:46:58;;;;;;;3.90;2.77;;;25.60;77.70;;;;;;5146830;27;20631;-83
2022/07/30 09:49:27;;;;;;;3.77;3.30;;;25.80;76.40;;;;;;5147229;27;20980;-81
2022/07/30 09:51:55;;;;;;;5.50;3.17;;;25.90;72.70;;;;;;5148640;27;20621;-81
2022/07/30 09:54:22;;;;;;;3.60;3.00;;;25.90;72.40;;;;;;5148117;27;20806;-81
2022/07/30 09:57:05;;;;;;;3.07;2.87;;;25.90;71.60;;;;;;5148538;27;20621;-81
2022/07/30 09:59:32;;;;;;;2.70;2.50;;;25.90;71.50;;;;;;5146735;27;20645;-82
2022/07/30 10:01:59;;;;;;;4.33;3.00;;;26.10;72.20;;;;;;5150188;27;21036;-82
2022/07/30 10:04:27;;;;;;;5.60;2.80;;;26.20;74.60;;;;;;5146567;27;20690;-81
2022/07/30 10:06:54;;;;;;;3.77;2.53;;;26.30;71.00;;;;;;5151002;27;20643;-81
2022/07/30 10:09:29;;;;;;;3.13;2.60;;;26.20;70.70;;;;;;5146279;27;20633;-81
2022/07/30 10:11:59;;;;;;;3.00;2.80;;;26.20;73.90;;;;;;5153777;27;20632;-81
2022/07/30 10:14:32;;;;;;;2.90;2.60;;;26.40;68.30;;;;;;5148638;27;20621;-81
2022/07/30 10:16:59;;;;;;;2.37;2.20;;;26.40;69.10;;;;;;5152433;27;20629;-84
2022/07/30 10:19:27;;;;;;;3.33;2.40;;;26.50;68.10;;;;;;5148148;27;20757;-84
2022/07/30 10:21:56;;;;;;;4.63;2.70;;;26.60;65.00;;;;;;5150648;27;20663;-81
2022/07/30 10:24:23;;;;;;;3.17;2.07;;;26.60;66.10;;;;;;5147755;27;20684;-81
2022/07/30 10:26:50;;;;;;;6.37;2.47;;;26.70;63.00;;;;;;5145485;27;20976;-81
2022/07/30 10:29:19;;;;;;;2.53;2.23;;;26.70;63.30;;;;;;5150234;27;20631;-81
2022/07/30 10:31:47;;;;;;;5.33;2.57;;;26.80;63.20;;;;;;5145482;27;20729;-81
2022/07/30 10:34:16;;;;;;;2.73;2.30;;;26.90;61.90;;;;;;5148201;27;20617;-81
2022/07/30 10:36:46;;;;;;;4.40;2.00;;;26.90;61.20;;;;;;5149781;27;21163;-84
2022/07/30 10:39:20;;;;;;;2.43;2.23;;;27.00;61.30;;;;;;5146344;27;20627;-83
2022/07/30 10:42:00;;;;;;;3.47;3.17;;;27.00;62.30;;;;;;5149382;27;20731;-83
2022/07/30 10:44:47;;;;;;;4.23;2.80;;;27.10;62.30;;;;;;5142283;27;20696;-83
2022/07/30 10:47:17;;;;;;;2.73;2.20;;;27.40;60.90;;;;;;5145386;27;20888;-83
2022/07/30 10:50:06;;;;;;;2.50;2.30;;;27.60;60.50;;;;;;5141988;27;20725;-83
2022/07/30 10:52:52;;;;;;;2.33;2.13;;;27.70;58.00;;;;;;5141567;27;20625;-83
2022/07/30 10:55:21;;;;;;;4.30;2.40;;;27.80;57.30;;;;;;5145694;27;20632;-83
2022/07/30 10:58:02;;;;;;;4.53;2.33;;;28.00;59.90;;;;;;5147116;27;20631;-81
2022/07/30 11:00:32;;;;;;;3.67;2.33;;;28.20;56.80;;;;;;5146659;27;20649;-83
2022/07/30 11:03:14;;;;;;;3.47;2.53;;;28.40;58.00;;;;;;5145593;27;20705;-83
2022/07/30 11:05:41;;;;;;;3.67;2.17;;;28.70;58.40;;;;;;5145503;27;20683;-82
2022/07/30 11:08:30;;;;;;;3.30;2.03;;;28.80;56.50;;;;;;5140807;27;20973;-82
2022/07/30 11:10:57;;;;;;;2.60;2.33;;;28.90;57.50;;;;;;5144801;27;20743;-82
2022/07/30 11:13:50;;;;;;;6.00;2.43;;;29.10;55.20;;;;;;5145750;27;21071;-82
2022/07/30 11:16:19;;;;;;;2.63;1.90;;;29.00;54.30;;;;;;5144222;27;20625;-82
2022/07/30 11:19:10;;;;;;;3.13;2.13;;;29.00;54.60;;;;;;5148888;27;20704;-82
2022/07/30 11:21:38;;;;;;;3.20;2.20;;;28.80;54.40;;;;;;5147077;27;21241;-82
2022/07/30 11:24:05;;;;;;;3.67;2.23;;;28.70;53.80;;;;;;5155688;27;20689;-82
2022/07/30 11:26:50;;;;;;;2.93;2.73;;;28.70;54.30;;;;;;5149702;27;21187;-82
2022/07/30 11:29:37;;;;;;;2.43;2.23;;;28.80;54.60;;;;;;5162796;27;20624;-82
2022/07/30 11:32:28;;;;;;;3.83;2.40;;;28.80;53.80;;;;;;5146646;27;20618;-82
2022/07/30 11:35:14;;;;;;;2.10;2.00;;;28.90;53.40;;;;;;5144075;27;20614;-83
2022/07/30 11:38:02;;;;;;;4.10;2.30;;;29.30;53.80;;;;;;5147422;27;20617;-85
2022/07/30 11:40:30;;;;;;;2.97;2.10;;;29.70;56.10;;;;;;5145436;27;20648;-84
2022/07/30 11:43:21;;;;;;;2.83;2.43;;;30.20;54.80;;;;;;5149442;27;20632;-82
2022/07/30 11:45:49;;;;;;;3.97;2.57;;;30.50;52.40;;;;;;5143747;27;20746;-84
2022/07/30 11:48:20;;;;;;;1.93;1.80;;;30.50;50.90;;;;;;5147529;27;20636;-82
2022/07/30 11:50:48;;;;;;;4.07;2.17;;;30.60;49.60;;;;;;5149073;27;20812;-82
2022/07/30 11:53:18;;;;;;;2.20;1.70;;;30.70;50.50;;;;;;5146010;27;21017;-85
2022/07/30 11:55:49;;;;;;;2.27;2.07;;;30.70;49.50;;;;;;5148900;27;21216;-84
2022/07/30 11:58:25;;;;;;;4.10;2.37;;;30.90;49.30;;;;;;5144136;27;20622;-84
2022/07/30 12:00:54;;;;;;;5.10;2.10;;;31.10;47.10;;;;;;5145181;27;20644;-84
2022/07/30 12:03:25;;;;;;;3.50;2.00;;;31.20;48.50;;;;;;5147513;27;20647;-84
2022/07/30 12:05:52;;;;;;;1.90;1.80;;;31.50;46.80;;;;;;5145939;27;21666;-84
2022/07/30 12:08:21;;;;;;;4.30;1.80;;;31.70;47.20;;;;;;5146039;27;20692;-84
2022/07/30 12:10:59;;;;;;;3.47;2.07;;;32.00;47.10;;;;;;5146641;27;20736;-82
2022/07/30 12:13:26;;;;;;;2.50;1.70;;;32.20;47.00;;;;;;5146812;27;20632;-81
2022/07/30 12:15:53;;;;;;;3.33;1.87;;;32.20;45.50;;;;;;5150799;27;20617;-84
2022/07/30 12:18:25;;;;;;;3.60;1.83;;;32.20;45.30;;;;;;5147858;27;20637;-84
2022/07/30 12:20:57;;;;;;;2.20;1.63;;;32.20;44.80;;;;;;5151741;27;20632;-83
2022/07/30 12:23:24;;;;;;;2.60;2.17;;;32.50;44.20;;;;;;5150828;27;20625;-83
2022/07/30 12:25:51;;;;;;;2.33;2.13;;;32.40;43.00;;;;;;5151679;27;20668;-83
2022/07/30 12:28:23;;;;;;;2.97;1.87;;;32.40;43.70;;;;;;5153315;27;20631;-84
2022/07/30 12:30:50;;;;;;;3.50;2.67;;;32.40;44.40;;;;;;5161515;27;21315;-84
2022/07/30 12:33:17;;;;;;;2.40;2.20;;;32.40;42.60;;;;;;5161055;27;20621;-84
2022/07/30 12:35:47;;;;;;;3.30;1.90;;;32.40;42.80;;;;;;5160797;27;21004;-84
2022/07/30 12:38:15;;;;;;;1.60;1.50;;;32.10;42.10;;;;;;5157234;27;20617;-83
2022/07/30 12:41:01;;;;;;;2.83;1.70;;;31.80;43.00;;;;;;5166881;27;20914;-84
2022/07/30 12:43:46;;;;;;;5.87;3.00;;;32.00;43.30;;;;;;5163558;27;21002;-83
2022/07/30 12:46:15;;;;;;;2.20;1.83;;;32.20;41.50;;;;;;5160540;27;20677;-83
2022/07/30 12:48:56;;;;;;;1.70;1.60;;;32.40;42.80;;;;;;5158793;27;20743;-83
2022/07/30 12:51:27;;;;;;;8.30;2.03;;;32.60;41.30;;;;;;5147521;27;20640;-84
2022/07/30 12:53:56;;;;;;;2.97;1.73;;;32.40;41.30;;;;;;5146524;27;20992;-82
2022/07/30 12:56:25;;;;;;;4.40;1.90;;;32.20;41.70;;;;;;5150825;27;21136;-83